CheckWX is a tool to help pilots better visualize weather data.  It is not intended as a substitute for an official pre-flight weather briefing.

23:31:37 UTC

KSLC TAF
Salt Lake City International Airport
Salt Lake City, Utah, USA
KSLC 041732Z 0418/0524 15006KT P6SM SKC FM042000 33006KT P6SM SKC FM050300 17007KT P6SM SCT100 SCT120

Apr-4@
18:00 UTC

Apr-4 @ 18:00 UTC

Apr-4@
20:00 UTC

Apr-4 @ 20:00 UTC

TAF KSLC 041732Z 0418/0524 15006KT P6SM SKC

Expired

Wind
  • 150° at 6 KTS
Cloud Levels
  • Clear skies

Apr-4@
20:00 UTC

Apr-4 @ 20:00 UTC

Apr-5@
03:00 UTC

Apr-5 @ 03:00 UTC

FM042000 33006KT P6SM SKC

Expired

Wind
  • 330° at 6 KTS
Cloud Levels
  • Clear skies

Apr-5@
03:00 UTC

Apr-5 @ 03:00 UTC

Apr-6@
00:00 UTC

Apr-6 @ 00:00 UTC

FM050300 17007KT P6SM SCT100 SCT120

From

From Standard forecast or significant change

Wind
  • 170° at 7 KTS
Cloud Levels
  • Scattered at 10,000' AGL
  • Scattered at 12,000' AGL